Hauptseite
METAR-TAF:

METAR-TAF

Flughäfen :

Flughafen Perugia

Perugia, Italien

Breite: 43-05N, Länge: 012-30E, Höhe: 208 m

Beobachtung

Neuester Wetterbericht von vor 22 Minuten, um 23:50 UTC
Wind 9 kt aus Nord/Nordwest
Temperatur 13°C
Luftfeuchtigkeit 72%
Luftdruck 1022 hPa
Sichtweite 10 km oder mehr

METAR: LIRZ 202350Z AUTO 33009KT 9999 NCD 13/08 Q1022

Zeit: 02:12 (00:12 UTC)

Prognose

Neuester Wetterbericht von vor 1 Stunde und 12 Minuten, um 23:00 UTC
Gültige Prognose vom 21 um 00 UTC bis 21 um 24 UTC
Wind 5 kt aus unterschiedlichen Richtungen
Sichtweite 10 km oder mehr
keine Wolken unter 1500 m und keine Kumulonimbus oder Gewitterwolken
Übergehend zu
vom 21 um 09 UTC bis 21 um 11 UTC
Wind 12 kt aus Nord/Nordost
Zeitweise
vom 21 um 16 UTC bis 21 um 24 UTC
Regen

TAF: LIRZ 202300Z 2100/2124 VRB05KT CAVOK BECMG 2109/2111 02012KT TEMPO 2116/2124 RA

Wetterbeobachtungen und Prognosen von mehr als 4000 Flughäfen (METAR und TAF Bericht).

Die verfügbaren Stationen werden durch gelbe und rote Markierungen auf der Karte dargestellt.

Führen Sie die Maus auf sie, um den Namen der Station zu sehen.

Darauf klicken, um die Beobachtung von Wetterbeobachtungen und Prognosen zu sehen.

Um die Karte zu ändern : klicken Sie auf den grünen Tasten mit einem schwarzen Kreuz Zum Vergrößern, auf den grünen Button mit einem Gedankenstrich zu verkleinern, oder auf die grünen Pfeile für benachbarte Karten.


METAR-TAF: